METAR / TAF

Nordholz:

METAR:

2017/07/24 20:20 ETMN 242020Z 36005KT 9999 FEW020 BKN090 16/14 Q1009 BLU

TAF:

2017/07/24 17:36 TAF ETMN 241625Z 2417/2502 VRB03KT 9999 NSW FEW030 SCT050 BKN070 TEMPO 2417/2420 35010KT 6000 SHRA SCT020 BKN030TCU PROB30 2417/2420 35013KT 4000 TSRA SCT010 BKN020CB CANCEL 1850

Wind EDXN:

24.07. 19:10z 330/03kt
24.07. 19:20z 340/05kt
24.07. 19:30z 360/04kt
24.07. 19:40z 010/04kt
24.07. 19:50z 010/05kt
24.07. 20:00z 010/05kt
24.07. 20:10z 010/06kt
24.07. 20:20z 360/05kt
24.07. 20:30z 010/05kt
24.07. 20:40z 360/05kt

Bremen:

METAR:

2017/07/24 20:20 EDDW 242020Z 35007KT 9999 -RA FEW014 SCT047 BKN073 16/14 Q1009 TEMPO 4500 SHRA BKN014

TAF:

2017/07/24 18:43 TAF EDDW 241700Z 2418/2518 34004KT 9000 SCT020 BKN045 PROB40 TEMPO 2418/2423 02012KT 3500 SHRA SCT005 BKN010CB PROB30 TEMPO 2418/2421 TSRA TEMPO 2423/2515 01009KT 2500 RA BR BKN007 SCT015CB PROB30 TEMPO 2509/2516 01015G25KT

Hamburg:

METAR:

2017/07/24 20:20 EDDH 242020Z 35003KT 320V020 9999 -RA NSC 16/15 Q1009 TEMPO RA

TAF:

2017/07/24 18:43 TAF EDDH 241700Z 2418/2524 35004KT 9000 SCT020 BKN045 PROB40 TEMPO 2418/2423 02012KT 3500 SHRA SCT008 BKN012CB PROB30 TEMPO 2419/2420 TSRA TEMPO 2423/2515 02009KT 2500 RA BR BKN007 SCT015CB PROB30 TEMPO 2509/2516 02015G25KT

Hannover:

METAR:

2017/07/24 20:20 EDDV 242020Z 32008KT 4000 RA BR FEW005 BKN025 15/14 Q1008 TEMPO BKN005

TAF:

2017/07/24 18:43 TAF EDDV 241700Z 2418/2518 33007KT 6000 SCT005 BKN015 TEMPO 2418/2518 3000 RA BKN006 SCT010CB PROB30 TEMPO 2502/2508 1200 -RADZ BR BKN004 PROB30 TEMPO 2502/2507 TSRA

 

Wikipedia Artikel: METAR - TAF

Daten von Aviation Weather Center der NOAA, es kann keine Garantie für Aktualität und Richtigkeit der Daten übernommen werden.

Die Nutzung dieser Daten zur Flugplanung ist nicht zulässig!